Time;durP1;ratioP1;P1;durP2;ratioP2;P2;SDS_P1;SDS_P2;PMS_P1;PMS_P2;Temp;Humidity;BMP_temperature;BMP_pressure;BME280_temperature;BME280_humidity;BME280_pressure;Samples;Min_cycle;Max_cycle;Signal;HPM_P1;HPM_P2
2023/10/30 00:01:25;;;;;;;21.45;15.63;;;;;;;5.03;100.00;98329.34;5138215;28;20088;-65
2023/10/30 00:03:52;;;;;;;19.05;14.55;;;;;;;5.09;100.00;98332.56;5137628;28;20306;-64
2023/10/30 00:06:18;;;;;;;20.38;14.70;;;;;;;5.05;100.00;98318.91;5137607;28;20051;-65
2023/10/30 00:08:44;;;;;;;20.30;14.88;;;;;;;5.31;100.00;98312.19;5137836;28;20080;-65
2023/10/30 00:11:10;;;;;;;23.75;14.93;;;;;;;5.38;100.00;98321.28;5137394;28;20144;-66
2023/10/30 00:13:36;;;;;;;20.65;14.15;;;;;;;5.13;100.00;98317.97;5137626;28;20408;-65
2023/10/30 00:16:02;;;;;;;20.67;14.05;;;;;;;5.21;100.00;98302.63;5137653;28;20150;-66
2023/10/30 00:18:28;;;;;;;17.60;13.50;;;;;;;5.22;100.00;98296.03;5137835;28;20078;-64
2023/10/30 00:20:54;;;;;;;21.27;16.55;;;;;;;5.39;100.00;98300.31;5137373;28;20459;-64
2023/10/30 00:23:20;;;;;;;25.00;15.55;;;;;;;5.29;100.00;98292.72;5137683;28;20146;-64
2023/10/30 00:25:46;;;;;;;17.30;13.57;;;;;;;5.47;100.00;98287.72;5137380;28;20133;-65
2023/10/30 00:28:12;;;;;;;18.60;13.73;;;;;;;5.32;100.00;98283.84;5137730;28;20079;-66
2023/10/30 00:30:38;;;;;;;19.35;13.98;;;;;;;5.40;100.00;98282.91;5137269;28;20503;-65
2023/10/30 00:33:04;;;;;;;18.50;15.40;;;;;;;5.76;100.00;98267.38;5137585;28;20065;-65
2023/10/30 00:35:30;;;;;;;16.67;14.98;;;;;;;5.51;100.00;98280.44;5137531;28;20047;-66
2023/10/30 00:37:56;;;;;;;19.42;14.45;;;;;;;5.46;100.00;98283.41;5137354;28;20150;-65
2023/10/30 00:40:24;;;;;;;20.40;14.80;;;;;;;5.61;100.00;98288.03;5137455;28;20399;-65
2023/10/30 00:42:50;;;;;;;17.95;13.98;;;;;;;5.42;100.00;98277.88;5137267;28;20341;-64
2023/10/30 00:45:17;;;;;;;17.60;14.50;;;;;;;5.57;100.00;98285.25;5137281;28;20138;-66
2023/10/30 00:47:42;;;;;;;16.02;12.88;;;;;;;5.39;100.00;98271.22;5137037;28;20412;-66
2023/10/30 00:50:10;;;;;;;15.48;12.90;;;;;;;5.64;100.00;98279.19;5136906;27;20043;-67
2023/10/30 00:52:35;;;;;;;14.88;11.65;;;;;;;5.43;100.00;98282.97;5139965;28;20498;-64
2023/10/30 00:55:01;;;;;;;19.20;12.63;;;;;;;5.45;100.00;98281.84;5141117;28;20139;-65
2023/10/30 00:57:28;;;;;;;14.75;11.95;;;;;;;5.47;100.00;98283.06;5140684;28;20051;-66
2023/10/30 00:59:54;;;;;;;19.88;12.13;;;;;;;5.54;100.00;98280.50;5141055;28;20066;-65
2023/10/30 01:02:20;;;;;;;20.75;13.57;;;;;;;5.51;100.00;98275.00;5140526;28;20074;-66
2023/10/30 01:04:46;;;;;;;19.80;13.07;;;;;;;5.64;100.00;98260.94;5140839;28;20051;-65
2023/10/30 01:07:12;;;;;;;17.27;12.13;;;;;;;5.58;100.00;98251.47;5140772;28;20051;-67
2023/10/30 01:09:38;;;;;;;16.98;11.00;;;;;;;5.49;100.00;98240.00;5140635;28;20057;-67
2023/10/30 01:12:04;;;;;;;14.93;11.68;;;;;;;5.63;100.00;98237.63;5140415;28;20399;-66
2023/10/30 01:14:30;;;;;;;18.25;12.07;;;;;;;5.52;100.00;98242.00;5140551;28;20145;-65
2023/10/30 01:16:56;;;;;;;23.77;16.00;;;;;;;5.83;100.00;98232.19;5140561;28;20141;-65
2023/10/30 01:19:23;;;;;;;17.35;13.45;;;;;;;5.51;100.00;98228.78;5140232;28;20047;-67
2023/10/30 01:21:49;;;;;;;19.65;12.55;;;;;;;5.58;100.00;98218.06;5140575;28;20415;-65
2023/10/30 01:24:15;;;;;;;14.13;12.00;;;;;;;5.60;100.00;98224.72;5140145;28;20047;-66
2023/10/30 01:26:41;;;;;;;17.50;10.85;;;;;;;5.75;100.00;98208.72;5140692;28;20074;-66
2023/10/30 01:29:07;;;;;;;18.48;14.05;;;;;;;5.76;100.00;98210.28;5140102;28;20051;-65
2023/10/30 01:31:33;;;;;;;19.90;12.32;;;;;;;5.75;100.00;98206.00;5140492;28;20138;-65
2023/10/30 01:33:59;;;;;;;19.90;12.30;;;;;;;5.76;100.00;98197.47;5140348;28;20408;-65
2023/10/30 01:36:26;;;;;;;17.42;11.73;;;;;;;5.86;100.00;98202.38;5140317;28;20324;-64
2023/10/30 01:38:52;;;;;;;20.70;12.10;;;;;;;5.81;100.00;98207.28;5140293;28;20134;-65
2023/10/30 01:41:18;;;;;;;18.63;12.02;;;;;;;5.96;100.00;98206.47;5140128;28;20051;-65
2023/10/30 01:43:44;;;;;;;17.50;11.60;;;;;;;5.97;100.00;98201.81;5140431;28;20141;-66
2023/10/30 01:46:10;;;;;;;18.95;13.77;;;;;;;6.26;100.00;98192.28;5140054;28;20086;-65
2023/10/30 01:48:37;;;;;;;24.27;15.13;;;;;;;6.21;100.00;98209.69;5140260;28;20074;-65
2023/10/30 01:51:06;;;;;;;15.82;10.98;;;;;;;6.21;100.00;98193.38;5139733;28;20409;-66
2023/10/30 01:53:34;;;;;;;13.15;9.95;;;;;;;6.05;100.00;98203.53;5140121;28;20357;-65
2023/10/30 01:56:02;;;;;;;16.85;11.85;;;;;;;6.10;100.00;98198.59;5139681;28;20142;-66
2023/10/30 01:58:29;;;;;;;20.10;13.10;;;;;;;6.12;100.00;98187.34;5140157;28;20107;-66
2023/10/30 02:00:56;;;;;;;19.33;12.40;;;;;;;6.15;100.00;98197.53;5139841;28;20047;-65
2023/10/30 02:03:22;;;;;;;13.93;10.52;;;;;;;6.33;100.00;98211.47;5139257;27;20137;-65
2023/10/30 02:05:49;;;;;;;18.23;12.13;;;;;;;6.21;100.00;98214.34;5139880;28;20147;-65
2023/10/30 02:08:16;;;;;;;15.00;12.27;;;;;;;6.32;100.00;98201.72;5139623;28;20320;-65
2023/10/30 02:10:43;;;;;;;15.13;11.95;;;;;;;6.25;100.00;98207.81;5139774;28;20047;-66
2023/10/30 02:13:09;;;;;;;15.85;11.43;;;;;;;6.53;100.00;98204.88;5139493;28;20061;-65
2023/10/30 02:15:35;;;;;;;16.63;13.38;;;;;;;6.88;100.00;98220.25;5139656;28;20467;-65
2023/10/30 02:18:01;;;;;;;20.35;12.73;;;;;;;6.89;100.00;98226.50;5139434;28;20058;-64
2023/10/30 02:20:28;;;;;;;18.40;12.98;;;;;;;6.85;100.00;98250.94;5139662;28;20317;-65
2023/10/30 02:22:54;;;;;;;16.45;12.18;;;;;;;6.67;100.00;98258.03;5139315;28;20373;-65
2023/10/30 02:25:22;;;;;;;21.40;11.02;;;;;;;6.93;100.00;98260.03;5139693;28;20057;-66
2023/10/30 02:27:48;;;;;;;13.43;9.68;;;;;;;6.78;100.00;98257.06;5139137;28;20413;-66
2023/10/30 02:30:14;;;;;;;19.17;11.48;;;;;;;6.60;100.00;98250.50;5139389;28;20078;-66
2023/10/30 02:32:42;;;;;;;15.40;10.80;;;;;;;6.60;100.00;98248.56;5139295;28;20057;-65
2023/10/30 02:35:10;;;;;;;15.13;10.05;;;;;;;6.90;100.00;98241.69;5139316;28;20055;-66
2023/10/30 02:37:36;;;;;;;14.05;9.88;;;;;;;6.76;100.00;98226.66;5139328;28;20047;-66
2023/10/30 02:40:02;;;;;;;18.38;11.85;;;;;;;7.28;100.00;98222.47;5139175;28;20051;-67
2023/10/30 02:42:29;;;;;;;15.38;12.32;;;;;;;7.03;100.00;98232.16;5139307;28;20141;-66
2023/10/30 02:44:55;;;;;;;16.27;9.02;;;;;;;6.85;100.00;98242.78;5139025;28;20047;-66
2023/10/30 02:47:23;;;;;;;14.80;10.82;;;;;;;6.72;100.00;98227.75;5139379;28;20071;-65
2023/10/30 02:49:49;;;;;;;14.50;9.98;;;;;;;6.98;100.00;98218.88;5138789;28;20055;-65
2023/10/30 02:52:15;;;;;;;20.30;9.68;;;;;;;6.76;100.00;98218.47;5139188;28;20096;-65
2023/10/30 02:54:41;;;;;;;18.52;10.45;;;;;;;7.02;100.00;98216.97;5138747;28;20078;-65
2023/10/30 02:57:07;;;;;;;14.13;10.20;;;;;;;6.96;100.00;98221.16;5139194;28;20043;-65
2023/10/30 02:59:33;;;;;;;16.95;9.65;;;;;;;7.04;100.00;98218.19;5138887;28;20072;-65
2023/10/30 03:01:59;;;;;;;15.90;9.52;;;;;;;6.96;100.00;98212.97;5138936;28;20042;-66
2023/10/30 03:04:25;;;;;;;12.32;10.18;;;;;;;6.98;100.00;98210.69;5138742;28;20391;-66
2023/10/30 03:06:51;;;;;;;19.60;11.40;;;;;;;7.22;100.00;98212.25;5138819;28;20054;-67
2023/10/30 03:09:17;;;;;;;14.38;9.05;;;;;;;7.04;100.00;98211.97;5138718;28;20089;-66
2023/10/30 03:11:43;;;;;;;11.77;8.95;;;;;;;7.08;100.00;98212.81;5138568;28;20141;-65
2023/10/30 03:14:09;;;;;;;15.80;10.05;;;;;;;7.08;100.00;98213.59;5137475;27;20045;-65
2023/10/30 03:16:35;;;;;;;13.40;7.95;;;;;;;7.12;100.00;98199.22;5138522;28;20376;-65
2023/10/30 03:19:01;;;;;;;16.27;9.02;;;;;;;7.27;100.00;98188.19;5138806;28;20100;-65
2023/10/30 03:21:27;;;;;;;11.55;9.63;;;;;;;7.12;100.00;98172.75;5138422;28;20130;-65
2023/10/30 03:23:53;;;;;;;17.40;9.63;;;;;;;7.17;100.00;98179.84;5138783;28;20418;-65
2023/10/30 03:26:19;;;;;;;13.15;8.20;;;;;;;7.18;100.00;98178.69;5138236;28;20051;-66
2023/10/30 03:28:45;;;;;;;14.27;9.43;;;;;;;7.25;100.00;98176.84;5138474;28;20047;-65
2023/10/30 03:31:11;;;;;;;19.73;8.68;;;;;;;7.45;100.00;98183.00;5138380;28;20059;-66
2023/10/30 03:33:38;;;;;;;13.65;8.35;;;;;;;7.59;100.00;98200.72;5138125;28;20107;-65
2023/10/30 03:36:04;;;;;;;21.63;7.50;;;;;;;7.21;100.00;98227.81;5138336;28;20138;-65
2023/10/30 03:38:30;;;;;;;19.88;10.35;;;;;;;7.21;100.00;98224.31;5138070;28;20183;-65
2023/10/30 03:40:56;;;;;;;12.38;8.65;;;;;;;7.21;100.00;98205.22;5138383;28;20078;-64
2023/10/30 03:43:22;;;;;;;18.23;9.75;;;;;;;7.20;100.00;98199.00;5138153;28;20051;-64
2023/10/30 03:45:48;;;;;;;12.07;8.75;;;;;;;7.19;100.00;98183.78;5138388;28;20112;-65
2023/10/30 03:48:14;;;;;;;17.10;9.00;;;;;;;7.34;100.00;98192.97;5137903;28;20137;-64
2023/10/30 03:50:40;;;;;;;9.95;7.43;;;;;;;7.25;100.00;98178.81;5138377;28;20083;-65
2023/10/30 03:53:06;;;;;;;18.35;9.73;;;;;;;7.31;100.00;98169.94;5137808;28;20081;-64
2023/10/30 03:55:32;;;;;;;13.23;9.43;;;;;;;7.54;100.00;98166.38;5138260;28;20400;-67
2023/10/30 03:57:58;;;;;;;20.63;9.23;;;;;;;7.71;100.00;98173.22;5138027;28;20089;-66
2023/10/30 04:00:24;;;;;;;13.75;9.18;;;;;;;7.45;100.00;98190.38;5137914;28;20150;-65
2023/10/30 04:02:50;;;;;;;17.65;8.02;;;;;;;7.79;100.00;98196.69;5138001;28;20146;-65
2023/10/30 04:05:16;;;;;;;11.35;9.73;;;;;;;7.73;100.00;98209.09;5137879;28;20142;-66
2023/10/30 04:07:43;;;;;;;16.80;8.80;;;;;;;7.58;100.00;98213.56;5137792;28;20047;-66
2023/10/30 04:10:09;;;;;;;15.45;7.78;;;;;;;7.64;100.00;98219.50;5137777;28;20051;-66
2023/10/30 04:12:35;;;;;;;11.40;8.63;;;;;;;7.59;100.00;98222.53;5137752;28;20051;-65
2023/10/30 04:15:01;;;;;;;18.88;9.55;;;;;;;7.46;100.00;98208.31;5137511;28;20380;-66
2023/10/30 04:17:27;;;;;;;15.15;9.10;;;;;;;7.66;100.00;98214.44;5137945;28;20078;-66
2023/10/30 04:19:53;;;;;;;13.52;8.98;;;;;;;7.66;100.00;98207.03;5137510;28;20074;-67
2023/10/30 04:22:19;;;;;;;15.95;10.10;;;;;;;7.95;100.00;98196.53;5137307;28;20084;-67
2023/10/30 04:24:46;;;;;;;20.00;9.55;;;;;;;7.95;100.00;98212.91;5137029;27;20423;-66
2023/10/30 04:27:12;;;;;;;18.77;10.45;;;;;;;7.94;100.00;98214.06;5137257;28;20133;-65
2023/10/30 04:29:38;;;;;;;16.60;11.88;;;;;;;7.87;100.00;98217.47;5137570;28;20047;-66
2023/10/30 04:32:04;;;;;;;18.08;12.95;;;;;;;7.88;100.00;98199.16;5137100;28;20057;-65
2023/10/30 04:34:30;;;;;;;16.08;10.45;;;;;;;7.83;100.00;98194.81;5137498;28;20047;-66
2023/10/30 04:36:56;;;;;;;15.35;10.10;;;;;;;7.70;100.00;98190.75;5137436;28;20083;-66
2023/10/30 04:39:22;;;;;;;17.70;11.07;;;;;;;7.75;100.00;98176.78;5137547;28;20137;-65
2023/10/30 04:41:49;;;;;;;16.63;8.10;;;;;;;7.71;100.00;98165.03;5136972;28;20484;-65
2023/10/30 04:44:15;;;;;;;15.13;9.90;;;;;;;7.70;100.00;98166.97;5137181;28;20051;-64
2023/10/30 04:46:41;;;;;;;15.05;9.38;;;;;;;7.70;100.00;98163.47;5137109;28;20374;-65
2023/10/30 04:49:06;;;;;;;11.05;9.80;;;;;;;7.82;100.00;98155.03;5137349;28;20103;-64
2023/10/30 04:51:33;;;;;;;14.95;9.50;;;;;;;8.11;100.00;98149.94;5136845;28;20058;-65
2023/10/30 04:53:59;;;;;;;12.32;9.35;;;;;;;7.98;100.00;98144.72;5137350;28;20063;-66
2023/10/30 04:56:25;;;;;;;14.07;7.82;;;;;;;7.73;100.00;98155.34;5136417;28;20141;-65
2023/10/30 04:58:52;;;;;;;16.45;9.25;;;;;;;7.95;100.00;98159.09;5136482;28;20043;-66
2023/10/30 05:01:17;;;;;;;14.57;8.23;;;;;;;7.84;100.00;98152.72;5136723;28;20366;-66
2023/10/30 05:03:43;;;;;;;18.10;8.25;;;;;;;8.12;100.00;98195.16;5136780;28;20051;-66
2023/10/30 05:06:09;;;;;;;18.02;10.90;;;;;;;8.22;100.00;98219.84;5136744;28;20051;-66
2023/10/30 05:08:36;;;;;;;13.73;8.30;;;;;;;8.19;100.00;98223.31;5136625;28;20069;-65
2023/10/30 05:11:02;;;;;;;15.95;9.20;;;;;;;8.21;100.00;98242.09;5136816;28;20400;-65
2023/10/30 05:13:29;;;;;;;15.05;8.70;;;;;;;8.21;100.00;98242.09;5136386;28;20142;-66
2023/10/30 05:15:57;;;;;;;11.80;7.88;;;;;;;8.47;100.00;98268.56;5136902;28;20069;-68
2023/10/30 05:18:24;;;;;;;17.38;8.80;;;;;;;8.20;100.00;98278.75;5136687;28;20109;-66
2023/10/30 05:20:50;;;;;;;13.90;9.05;;;;;;;8.37;100.00;98288.31;5136883;28;20047;-67
2023/10/30 05:23:16;;;;;;;13.90;8.30;;;;;;;8.41;100.00;98316.47;5136560;28;20078;-70
2023/10/30 05:25:42;;;;;;;14.95;8.63;;;;;;;8.38;100.00;98344.53;5137018;28;20092;-65
2023/10/30 05:28:08;;;;;;;16.15;8.23;;;;;;;8.31;100.00;98319.84;5142647;27;20050;-65
2023/10/30 05:30:34;;;;;;;17.27;9.13;;;;;;;8.29;100.00;98327.59;5157189;27;20169;-65
2023/10/30 05:33:01;;;;;;;14.85;9.93;;;;;;;8.08;100.00;98339.03;5152245;27;20050;-69
2023/10/30 05:35:27;;;;;;;15.52;9.10;;;;;;;8.24;100.00;98334.19;5156791;27;20073;-70
2023/10/30 05:37:53;;;;;;;19.85;10.45;;;;;;;8.44;100.00;98332.13;5158755;27;20046;-68
2023/10/30 05:40:20;;;;;;;21.20;9.52;;;;;;;8.14;100.00;98352.00;5160468;27;20054;-67
2023/10/30 05:42:46;;;;;;;16.95;9.95;;;;;;;8.02;100.00;98312.03;5160937;27;20111;-68
2023/10/30 05:45:12;;;;;;;20.88;9.45;;;;;;;7.99;100.00;98326.41;5159945;27;20324;-73
2023/10/30 05:47:38;;;;;;;14.40;9.30;;;;;;;7.93;100.00;98295.16;5160565;27;20166;-67
2023/10/30 05:50:06;;;;;;;13.27;9.38;;;;;;;7.90;100.00;98298.63;5159935;27;20087;-65
2023/10/30 05:52:32;;;;;;;15.73;9.00;;;;;;;8.05;100.00;98279.69;5160833;27;20050;-69
2023/10/30 05:54:58;;;;;;;11.07;7.80;;;;;;;7.95;100.00;98257.34;5160103;27;20049;-66
2023/10/30 05:57:24;;;;;;;15.82;7.70;;;;;;;8.04;100.00;98231.72;5160102;27;20050;-68
2023/10/30 05:59:50;;;;;;;10.93;7.68;;;;;;;8.08;100.00;98249.72;5160356;27;20202;-67
2023/10/30 06:02:16;;;;;;;14.60;7.72;;;;;;;7.96;100.00;98234.38;5160405;27;20253;-68
2023/10/30 06:04:42;;;;;;;12.27;8.40;;;;;;;8.06;100.00;98234.84;5159684;27;20483;-64
2023/10/30 06:07:09;;;;;;;16.13;8.45;;;;;;;8.09;100.00;98237.63;5160139;27;20074;-67
2023/10/30 06:09:35;;;;;;;14.20;9.38;;;;;;;8.23;100.00;98237.03;5160189;27;20142;-70
2023/10/30 06:12:00;;;;;;;12.13;7.80;;;;;;;8.08;100.00;98243.47;5159946;27;20086;-67
2023/10/30 06:14:26;;;;;;;15.98;8.43;;;;;;;8.13;100.00;98243.13;5160036;27;20051;-65
2023/10/30 06:16:53;;;;;;;16.52;9.00;;;;;;;8.29;100.00;98246.47;5160040;27;20043;-64
2023/10/30 06:19:18;;;;;;;11.55;8.07;;;;;;;8.21;100.00;98244.81;5160196;27;20047;-67
2023/10/30 06:21:44;;;;;;;13.73;7.65;;;;;;;8.35;100.00;98269.56;5160137;27;20190;-68
2023/10/30 06:24:11;;;;;;;14.68;8.00;;;;;;;8.26;100.00;98269.03;5160172;27;20053;-68
2023/10/30 06:26:38;;;;;;;15.38;9.05;;;;;;;8.37;100.00;98272.72;5159626;27;20050;-68
2023/10/30 06:29:04;;;;;;;16.13;8.90;;;;;;;8.35;100.00;98288.69;5159870;27;20091;-75
2023/10/30 06:31:30;;;;;;;16.75;8.88;;;;;;;8.49;100.00;98310.72;5159618;27;20478;-70
2023/10/30 06:33:56;;;;;;;12.90;10.15;;;;;;;8.42;100.00;98312.59;5159062;27;20158;-72
2023/10/30 06:36:22;;;;;;;17.88;10.95;;;;;;;8.53;100.00;98335.38;5159914;27;20078;-65
2023/10/30 06:38:48;;;;;;;15.40;10.50;;;;;;;8.34;100.00;98330.81;5158802;27;20051;-68
2023/10/30 06:41:14;;;;;;;28.13;11.38;;;;;;;8.37;100.00;98330.06;5159007;27;20061;-65
2023/10/30 06:43:40;;;;;;;18.33;10.35;;;;;;;8.61;100.00;98337.03;5159427;27;20061;-67
2023/10/30 06:46:08;;;;;;;24.35;12.35;;;;;;;8.53;100.00;98340.03;5159411;27;20051;-66
2023/10/30 06:48:34;;;;;;;25.75;11.50;;;;;;;8.92;100.00;98338.56;5159280;27;20082;-67
2023/10/30 06:51:00;;;;;;;23.17;10.43;;;;;;;8.67;100.00;98351.16;5159298;27;20411;-70
2023/10/30 06:53:26;;;;;;;24.65;11.02;;;;;;;8.80;100.00;98355.22;5158780;27;20078;-66
2023/10/30 06:55:52;;;;;;;23.95;10.30;;;;;;;8.91;100.00;98339.72;5159602;27;20051;-65
2023/10/30 06:58:21;;;;;;;22.77;10.95;;;;;;;8.83;100.00;98357.22;5159463;27;20367;-64
2023/10/30 07:00:47;;;;;;;25.52;13.57;;;;;;;8.84;100.00;98355.25;5159492;27;20050;-67
2023/10/30 07:03:13;;;;;;;21.85;11.90;;;;;;;9.00;100.00;98368.69;5158946;27;20051;-71
2023/10/30 07:05:39;;;;;;;25.15;12.45;;;;;;;8.94;100.00;98371.78;5159411;27;20058;-73
2023/10/30 07:08:05;;;;;;;20.90;8.75;;;;;;;9.02;100.00;98352.72;5159225;27;20074;-67
2023/10/30 07:10:31;;;;;;;21.73;8.98;;;;;;;9.30;100.00;98371.38;5159357;27;20051;-68
2023/10/30 07:12:57;;;;;;;12.68;7.53;;;;;;;9.10;100.00;98400.88;5158617;27;20076;-70
2023/10/30 07:15:26;;;;;;;19.02;8.10;;;;;;;9.30;100.00;98396.00;5159474;27;20046;-71
2023/10/30 07:17:53;;;;;;;14.43;9.20;;;;;;;9.43;100.00;98416.47;5158747;27;20047;-69
2023/10/30 07:20:19;;;;;;;16.88;9.57;;;;;;;9.31;100.00;98420.22;5159357;27;20137;-69
2023/10/30 07:22:45;;;;;;;24.70;12.25;;;;;;;9.39;100.00;98421.09;5159136;27;20055;-67
2023/10/30 07:25:11;;;;;;;24.63;12.35;;;;;;;9.31;100.00;98425.69;5158952;27;20046;-67
2023/10/30 07:27:37;;;;;;;29.27;12.85;;;;;;;9.45;100.00;98413.34;5158879;27;20141;-70
2023/10/30 07:30:03;;;;;;;26.45;11.70;;;;;;;9.58;100.00;98417.38;5158645;27;20061;-71
2023/10/30 07:32:30;;;;;;;27.90;12.35;;;;;;;9.65;100.00;98409.22;5158945;27;20145;-70
2023/10/30 07:34:56;;;;;;;21.27;9.57;;;;;;;10.00;100.00;98425.19;5158726;27;20057;-72
2023/10/30 07:37:22;;;;;;;15.93;7.90;;;;;;;9.84;100.00;98471.22;5158776;27;20404;-69
2023/10/30 07:39:48;;;;;;;12.57;8.05;;;;;;;9.84;100.00;98493.88;5158510;27;20054;-68
2023/10/30 07:42:14;;;;;;;14.27;9.00;;;;;;;9.74;100.00;98483.63;5158995;27;20059;-68
2023/10/30 07:44:40;;;;;;;17.52;9.70;;;;;;;9.92;100.00;98485.75;5158421;27;20061;-69
2023/10/30 07:47:07;;;;;;;25.50;9.95;;;;;;;9.98;100.00;98500.66;5158790;27;20047;-70
2023/10/30 07:49:34;;;;;;;17.50;10.63;;;;;;;10.02;100.00;98501.47;5158325;27;20328;-69
2023/10/30 07:52:00;;;;;;;18.70;10.20;;;;;;;10.23;100.00;98512.63;5158845;27;20129;-71
2023/10/30 07:54:26;;;;;;;18.27;9.68;;;;;;;10.42;100.00;98508.13;5158466;27;20485;-74
2023/10/30 07:56:51;;;;;;;12.50;6.75;;;;;;;10.14;100.00;98503.94;5158518;27;20054;-65
2023/10/30 07:59:17;;;;;;;13.30;7.22;;;;;;;10.41;100.00;98503.81;5158115;27;20074;-67
2023/10/30 08:01:45;;;;;;;13.68;7.68;;;;;;;11.03;100.00;98525.78;5157682;27;20138;-73
2023/10/30 08:04:11;;;;;;;11.20;7.13;;;;;;;11.26;100.00;98534.53;5158469;27;20074;-67
2023/10/30 08:06:38;;;;;;;15.95;7.65;;;;;;;11.36;100.00;98537.69;5158286;27;20051;-64
2023/10/30 08:09:05;;;;;;;15.75;7.75;;;;;;;11.41;100.00;98518.91;5158321;27;20072;-65
2023/10/30 08:11:32;;;;;;;14.90;7.65;;;;;;;11.87;100.00;98468.84;5157948;27;20055;-66
2023/10/30 08:13:58;;;;;;;19.27;8.80;;;;;;;11.94;100.00;98399.41;5158349;27;20051;-66
2023/10/30 08:16:24;;;;;;;17.27;9.35;;;;;;;12.20;100.00;98371.53;5157882;27;20057;-66
2023/10/30 08:18:50;;;;;;;21.73;8.45;;;;;;;12.86;100.00;98304.13;5158248;27;20054;-67
2023/10/30 08:21:15;;;;;;;20.85;12.45;;;;;;;12.70;100.00;98167.13;5157853;27;20046;-67
2023/10/30 08:23:42;;;;;;;27.33;16.73;;;;;;;12.57;100.00;98202.56;5158124;27;20065;-66
2023/10/30 08:26:25;;;;;;;21.38;8.85;;;;;;;12.66;100.00;98073.66;5158278;27;20056;-70
2023/10/30 08:28:51;;;;;;;17.52;7.95;;;;;;;12.76;100.00;98024.44;5158028;27;20074;-64
2023/10/30 08:31:18;;;;;;;12.40;7.10;;;;;;;13.09;100.00;97984.44;5158214;27;20415;-70
2023/10/30 08:33:44;;;;;;;18.52;7.35;;;;;;;13.29;100.00;97874.53;5158087;27;20069;-65
2023/10/30 08:36:10;;;;;;;18.58;7.00;;;;;;;13.26;100.00;97865.16;5158006;27;20133;-65
2023/10/30 08:38:38;;;;;;;16.33;7.80;;;;;;;13.58;100.00;97740.75;5157761;27;20082;-65
2023/10/30 08:41:05;;;;;;;17.73;7.05;;;;;;;13.80;100.00;97641.25;5157970;27;20326;-67
2023/10/30 08:43:31;;;;;;;24.50;9.30;;;;;;;13.77;100.00;97620.06;5157488;27;20391;-66
2023/10/30 08:45:57;;;;;;;23.85;7.70;;;;;;;13.15;100.00;97766.19;5157369;27;20058;-67
2023/10/30 08:48:22;;;;;;;19.77;8.90;;;;;;;13.53;100.00;97845.88;5157922;27;20146;-66
2023/10/30 08:50:49;;;;;;;24.38;11.57;;;;;;;13.15;100.00;97826.72;5157722;27;20153;-67
2023/10/30 08:53:15;;;;;;;20.65;10.93;;;;;;;12.98;100.00;97981.81;5157470;27;20137;-67
2023/10/30 08:55:41;;;;;;;17.77;11.00;;;;;;;12.97;100.00;98043.53;5157631;27;20309;-66
2023/10/30 08:58:08;;;;;;;13.50;7.18;;;;;;;12.78;100.00;98115.59;5157792;27;20046;-65
2023/10/30 09:00:34;;;;;;;16.70;6.65;;;;;;;12.91;100.00;98138.69;5157505;27;20061;-64
2023/10/30 09:03:00;;;;;;;15.68;6.05;;;;;;;12.82;100.00;98141.09;5157723;27;20054;-67
2023/10/30 09:05:26;;;;;;;19.25;6.97;;;;;;;13.57;100.00;98134.94;5157332;27;20447;-66
2023/10/30 09:07:52;;;;;;;18.77;10.70;;;;;;;13.69;100.00;97995.91;5157601;27;20396;-67
2023/10/30 09:10:18;;;;;;;17.00;7.35;;;;;;;14.09;100.00;97914.25;5157392;27;20142;-64
2023/10/30 09:12:44;;;;;;;13.50;7.63;;;;;;;13.69;100.00;97902.28;5159567;27;20082;-64
2023/10/30 09:15:13;;;;;;;11.68;7.13;;;;;;;13.31;100.00;97974.00;5160831;27;20073;-65
2023/10/30 09:17:39;;;;;;;13.25;6.65;;;;;;;13.15;100.00;98110.16;5160812;27;20058;-64
2023/10/30 09:20:06;;;;;;;11.52;6.70;;;;;;;13.38;100.00;98095.81;5161060;27;20141;-65
2023/10/30 09:22:33;;;;;;;8.02;5.03;;;;;;;12.79;100.00;98172.16;5160959;27;20110;-65
2023/10/30 09:24:59;;;;;;;12.95;6.60;;;;;;;13.36;100.00;98167.03;5161067;27;20103;-66
2023/10/30 09:27:25;;;;;;;12.85;6.13;;;;;;;13.32;100.00;98187.50;5160869;27;20354;-71
2023/10/30 09:29:51;;;;;;;10.85;6.10;;;;;;;13.08;100.00;98197.50;5161229;27;20046;-70
2023/10/30 09:32:18;;;;;;;9.55;5.60;;;;;;;13.06;100.00;98249.38;5160676;27;20082;-64
2023/10/30 09:34:44;;;;;;;14.80;6.28;;;;;;;13.31;100.00;98227.22;5160972;27;20081;-63
2023/10/30 09:37:11;;;;;;;9.52;6.57;;;;;;;13.15;100.00;98222.19;5160686;27;20072;-62
2023/10/30 09:39:36;;;;;;;13.93;5.80;;;;;;;13.01;100.00;98231.34;5161004;27;20461;-65
2023/10/30 09:42:07;;;;;;;12.38;6.35;;;;;;;12.87;100.00;98265.22;5160543;27;20050;-62
2023/10/30 09:44:34;;;;;;;13.32;8.45;;;;;;;13.40;100.00;98268.84;5160727;27;20133;-64
2023/10/30 09:47:01;;;;;;;21.65;7.70;;;;;;;13.37;100.00;98245.66;5160422;27;20058;-64
2023/10/30 09:49:28;;;;;;;13.23;6.78;;;;;;;13.19;100.00;98192.69;5160386;27;20149;-62
2023/10/30 09:51:57;;;;;;;16.92;8.18;;;;;;;13.83;100.00;98199.59;5160356;27;20058;-62
2023/10/30 09:54:23;;;;;;;12.23;7.03;;;;;;;13.82;100.00;98131.91;5160488;27;20309;-62
2023/10/30 09:56:49;;;;;;;9.80;5.95;;;;;;;14.28;100.00;98072.66;5160515;27;20111;-63
2023/10/30 09:59:16;;;;;;;14.23;6.72;;;;;;;14.13;100.00;97935.06;5160286;27;20046;-64
2023/10/30 10:01:42;;;;;;;9.88;6.93;;;;;;;13.94;100.00;97890.91;5160570;27;20134;-65
2023/10/30 10:04:08;;;;;;;8.43;4.47;;;;;;;14.21;100.00;97824.69;5160036;27;20122;-64
2023/10/30 10:06:35;;;;;;;10.65;7.25;;;;;;;14.69;100.00;97765.47;5160643;27;20323;-69
2023/10/30 10:09:04;;;;;;;6.88;4.32;;;;;;;14.81;100.00;97663.53;5159987;27;20057;-64
2023/10/30 10:11:32;;;;;;;9.25;4.30;;;;;;;14.32;100.00;97555.88;5160060;27;20129;-63
2023/10/30 10:13:58;;;;;;;11.20;4.70;;;;;;;14.18;100.00;97608.56;5159947;27;20345;-66
2023/10/30 10:16:26;;;;;;;9.43;4.65;;;;;;;13.93;100.00;97633.09;5160112;27;20059;-70
2023/10/30 10:18:52;;;;;;;8.15;4.45;;;;;;;13.81;100.00;97686.88;5159865;27;20413;-66
2023/10/30 10:21:21;;;;;;;11.57;5.63;;;;;;;13.62;100.00;97771.00;5159686;27;20047;-68
2023/10/30 10:23:47;;;;;;;12.57;3.97;;;;;;;13.71;100.00;97731.91;5159665;27;20100;-65
2023/10/30 10:26:14;;;;;;;10.32;4.57;;;;;;;13.88;100.00;97763.84;5159715;27;20129;-63
2023/10/30 10:28:41;;;;;;;9.77;6.00;;;;;;;14.26;100.00;97697.38;5160122;27;20051;-66
2023/10/30 10:31:07;;;;;;;10.00;4.82;;;;;;;14.53;100.00;97636.59;5159534;27;20149;-66
2023/10/30 10:33:34;;;;;;;12.20;5.85;;;;;;;15.04;100.00;97501.75;5159855;27;20051;-63
2023/10/30 10:36:03;;;;;;;11.32;5.88;;;;;;;15.07;100.00;97440.16;5159871;27;20123;-67
2023/10/30 10:38:30;;;;;;;6.55;4.25;;;;;;;14.91;100.00;97314.06;5160187;27;20130;-64
2023/10/30 10:40:56;;;;;;;9.88;5.07;;;;;;;15.07;100.00;97258.81;5159527;27;20083;-70
2023/10/30 10:43:24;;;;;;;9.23;5.22;;;;;;;15.44;100.00;97292.34;5159991;27;20381;-72
2023/10/30 10:45:52;;;;;;;10.18;4.25;;;;;;;15.40;100.00;97195.06;5159824;27;20418;-69
2023/10/30 10:48:18;;;;;;;9.45;6.15;;;;;;;15.66;100.00;97228.97;5159582;27;20054;-68
2023/10/30 10:50:44;;;;;;;12.75;5.88;;;;;;;15.51;100.00;97205.75;5159676;27;20142;-64
2023/10/30 10:53:11;;;;;;;10.00;5.47;;;;;;;15.93;100.00;97164.09;5158807;27;20058;-67
2023/10/30 10:55:42;;;;;;;10.57;5.18;;;;;;;15.75;100.00;97167.47;5159394;27;20047;-65
2023/10/30 10:58:12;;;;;;;7.28;5.45;;;;;;;15.86;100.00;97178.94;5158892;27;20103;-63
2023/10/30 11:00:45;;;;;;;6.93;4.68;;;;;;;15.50;100.00;97147.00;5159302;27;20068;-64
2023/10/30 11:03:11;;;;;;;7.65;4.82;;;;;;;15.39;100.00;97193.50;5159063;27;20424;-71
2023/10/30 11:05:37;;;;;;;11.25;5.30;;;;;;;15.06;100.00;97207.59;5159457;27;20356;-67
2023/10/30 11:08:15;;;;;;;8.75;4.90;;;;;;;15.08;100.00;97262.31;5159324;27;20051;-67
2023/10/30 11:10:47;;;;;;;20.17;8.40;;;;;;;15.64;100.00;97214.00;5158919;27;20074;-66
2023/10/30 11:13:23;;;;;;;9.52;3.70;;;;;;;14.82;100.00;97276.09;5159075;27;20057;-65
2023/10/30 11:15:54;;;;;;;8.50;4.40;;;;;;;15.32;100.00;97303.41;5158994;27;20450;-67